Time;durP1;ratioP1;P1;durP2;ratioP2;P2;SDS_P1;SDS_P2;PMS_P1;PMS_P2;Temp;Humidity;BMP_temperature;BMP_pressure;BME280_temperature;BME280_humidity;BME280_pressure;Samples;Min_cycle;Max_cycle;Signal;HPM_P1;HPM_P2
2023/03/24 05:30:28;;;;;;;;;1.75;0.50;;;;;13.48;67.29;100053.47;5048368;27;46091;-72
2023/03/24 05:32:53;;;;;;;;;1.00;0.50;;;;;13.65;67.32;100080.13;5054686;28;45537;-72
2023/03/24 05:35:19;;;;;;;;;0.00;0.00;;;;;13.63;66.98;100082.03;5045237;28;45553;-70
2023/03/24 05:37:44;;;;;;;;;2.00;1.00;;;;;13.56;66.71;100088.81;5055529;28;45399;-71
2023/03/24 05:40:10;;;;;;;;;0.50;0.50;;;;;13.48;66.79;100085.78;5055922;28;47109;-70
2023/03/24 05:42:36;;;;;;;;;0.25;0.25;;;;;13.41;66.93;100097.97;5067993;28;45892;-71
2023/03/24 05:45:02;;;;;;;;;0.75;0.00;;;;;13.39;67.18;100100.75;5073739;28;45216;-70
2023/03/24 05:47:27;;;;;;;;;1.00;1.00;;;;;13.41;67.03;100096.13;5063721;28;45477;-72
2023/03/24 05:49:52;;;;;;;;;1.75;0.50;;;;;13.45;66.85;100091.38;5075271;28;46029;-73
2023/03/24 05:52:19;;;;;;;;;2.00;1.00;;;;;13.46;66.90;100099.34;5059495;28;45524;-72
2023/03/24 05:54:45;;;;;;;;;2.00;0.00;;;;;13.43;67.23;100106.81;5055014;28;45450;-70
2023/03/24 05:57:13;;;;;;;;;2.25;0.00;;;;;13.46;67.32;100117.34;5036776;28;45503;-72
2023/03/24 05:59:38;;;;;;;;;3.00;0.50;;;;;13.41;67.02;100106.91;5058295;28;45415;-72
2023/03/24 06:02:04;;;;;;;;;1.00;1.00;;;;;13.34;66.74;100121.75;5058366;28;45371;-75
2023/03/24 06:04:29;;;;;;;;;1.50;1.25;;;;;13.29;66.40;100131.06;5064053;28;45339;-73
2023/03/24 06:06:59;;;;;;;;;1.75;0.75;;;;;13.30;66.41;100130.13;5062911;28;45469;-71
2023/03/24 06:09:28;;;;;;;;;1.00;1.00;;;;;13.25;66.35;100138.50;5060493;28;46200;-73
2023/03/24 06:11:54;;;;;;;;;2.00;0.00;;;;;13.26;66.33;100153.69;5055624;28;45410;-71
2023/03/24 06:14:20;;;;;;;;;4.75;2.25;;;;;13.15;66.23;100145.47;5068642;28;45380;-70
2023/03/24 06:16:48;;;;;;;;;4.00;1.00;;;;;13.08;66.40;100142.28;5059387;28;45657;-71
2023/03/24 06:19:14;;;;;;;;;0.75;0.75;;;;;13.02;66.75;100137.28;5070046;28;45511;-73
2023/03/24 06:21:40;;;;;;;;;1.50;1.00;;;;;13.07;66.62;100170.16;5054574;28;45382;-71
2023/03/24 06:24:05;;;;;;;;;0.25;0.25;;;;;12.91;66.54;100152.41;5054229;28;45308;-71
2023/03/24 06:26:31;;;;;;;;;1.50;1.00;;;;;12.99;66.50;100160.84;5057121;28;45548;-71
2023/03/24 06:28:57;;;;;;;;;4.50;1.75;;;;;12.91;67.43;100172.13;5065646;28;45807;-76
2023/03/24 06:31:23;;;;;;;;;2.25;0.75;;;;;13.01;67.35;100186.72;5063841;28;45469;-70
2023/03/24 06:33:53;;;;;;;;;1.00;1.00;;;;;12.97;66.84;100176.22;5071171;28;45479;-74
2023/03/24 06:36:18;;;;;;;;;2.00;0.50;;;;;13.01;67.30;100189.41;5063072;28;45528;-74
2023/03/24 06:38:44;;;;;;;;;3.25;2.00;;;;;13.04;66.60;100201.78;5054781;28;45359;-71
2023/03/24 06:41:10;;;;;;;;;1.00;1.00;;;;;13.00;66.54;100184.13;5052890;28;45435;-72
2023/03/24 06:43:36;;;;;;;;;0.00;0.00;;;;;12.83;66.91;100163.69;5053749;28;45364;-72
2023/03/24 06:46:01;;;;;;;;;0.00;0.00;;;;;12.96;66.86;100196.03;5054090;28;56953;-72
2023/03/24 06:48:27;;;;;;;;;2.75;0.00;;;;;13.00;66.70;100211.88;5053996;28;45430;-70
2023/03/24 06:50:53;;;;;;;;;2.75;1.00;;;;;13.01;66.65;100197.47;5054403;28;45371;-72
2023/03/24 06:53:22;;;;;;;;;2.50;1.00;;;;;12.92;67.19;100202.56;5053971;28;45477;-72
2023/03/24 06:55:49;;;;;;;;;3.00;2.00;;;;;12.93;66.63;100202.44;5053669;28;45535;-70
2023/03/24 06:58:16;;;;;;;;;0.00;0.00;;;;;13.02;66.62;100214.44;5053630;28;46135;-71
2023/03/24 07:00:42;;;;;;;;;1.25;1.25;;;;;12.99;66.58;100220.91;5053862;28;45327;-71
2023/03/24 07:03:08;;;;;;;;;2.50;0.00;;;;;12.99;66.68;100209.28;5053667;28;45452;-70
2023/03/24 07:05:44;;;;;;;;;2.00;1.00;;;;;12.94;66.32;100212.25;5061556;28;45498;-70
2023/03/24 07:08:10;;;;;;;;;0.00;0.00;;;;;12.96;65.81;100204.09;5054152;28;45391;-71
2023/03/24 07:10:38;;;;;;;;;0.00;0.00;;;;;13.08;65.51;100220.31;5054363;28;45514;-71
2023/03/24 07:13:04;;;;;;;;;3.75;0.50;;;;;13.09;65.48;100213.97;5056700;28;45340;-71
2023/03/24 07:15:29;;;;;;;;;2.00;1.00;;;;;13.05;65.66;100208.88;5063202;28;45359;-71
2023/03/24 07:17:55;;;;;;;;;0.00;0.00;;;;;13.13;65.91;100217.31;5035578;28;47354;-72
2023/03/24 07:20:20;;;;;;;;;2.75;1.00;;;;;13.14;65.65;100225.34;5064021;28;48287;-71
2023/03/24 07:22:46;;;;;;;;;3.00;1.00;;;;;13.11;65.53;100230.00;5056050;28;45374;-73
2023/03/24 07:25:13;;;;;;;;;2.00;0.00;;;;;13.06;65.39;100240.22;5073845;28;45259;-72
2023/03/24 07:27:39;;;;;;;;;1.00;1.00;;;;;13.09;65.51;100240.03;5074000;28;45398;-71
2023/03/24 07:30:06;;;;;;;;;1.00;0.00;;;;;13.16;65.61;100244.94;5074573;28;45409;-71
2023/03/24 07:32:33;;;;;;;;;2.75;0.25;;;;;13.16;65.21;100244.94;5077487;28;45320;-75
2023/03/24 07:35:00;;;;;;;;;2.00;0.75;;;;;13.19;65.50;100260.88;5059448;28;46303;-73
2023/03/24 07:37:25;;;;;;;;;3.00;2.00;;;;;13.17;64.85;100249.38;5059297;28;46522;-70
2023/03/24 07:39:51;;;;;;;;;1.00;1.00;;;;;13.30;64.62;100249.44;5077639;28;45323;-73
2023/03/24 07:42:16;;;;;;;;;3.50;1.50;;;;;13.30;64.56;100230.59;5077746;28;45370;-71
2023/03/24 07:44:42;;;;;;;;;0.75;0.75;;;;;13.16;64.45;100220.72;5077602;28;45571;-76
2023/03/24 07:47:07;;;;;;;;;4.50;3.00;;;;;13.21;63.90;100258.97;5073507;28;46012;-76
2023/03/24 07:49:33;;;;;;;;;3.00;1.00;;;;;13.23;63.54;100237.34;5056786;28;45501;-74
2023/03/24 07:51:58;;;;;;;;;3.00;1.00;;;;;13.29;64.07;100260.28;5056938;28;45333;-75
2023/03/24 07:54:24;;;;;;;;;4.00;1.00;;;;;13.32;64.12;100236.75;5056659;28;45883;-70
2023/03/24 07:56:49;;;;;;;;;1.00;1.00;;;;;13.41;63.80;100240.66;5060183;28;47064;-73
2023/03/24 07:59:16;;;;;;;;;0.75;0.75;;;;;13.46;63.38;100260.94;5062781;28;45982;-69
2023/03/24 08:01:42;;;;;;;;;3.00;1.50;;;;;13.40;63.30;100245.19;5059010;28;45390;-69
2023/03/24 08:04:10;;;;;;;;;1.00;1.00;;;;;13.37;63.12;100263.34;5065007;28;45641;-69
2023/03/24 08:06:36;;;;;;;;;1.50;0.25;;;;;13.38;63.39;100270.47;5066797;28;45610;-68
2023/03/24 08:09:01;;;;;;;;;3.50;1.00;;;;;13.50;62.90;100273.25;5067896;28;45312;-69
2023/03/24 08:11:28;;;;;;;;;1.00;1.00;;;;;13.58;62.40;100264.66;5063412;28;45400;-68
2023/03/24 08:13:53;;;;;;;;;2.00;2.00;;;;;13.66;62.27;100264.16;5067776;28;45671;-69
2023/03/24 08:16:20;;;;;;;;;1.00;1.00;;;;;13.80;62.09;100266.78;5068699;28;49411;-68
2023/03/24 08:18:47;;;;;;;;;3.75;1.00;;;;;13.84;61.39;100262.94;5055882;28;45455;-68
2023/03/24 08:21:13;;;;;;;;;1.50;1.50;;;;;13.86;60.44;100271.78;5058121;28;45291;-69
2023/03/24 08:23:38;;;;;;;;;4.00;1.00;;;;;13.81;60.08;100263.97;5066087;28;45661;-73
2023/03/24 08:26:04;;;;;;;;;4.00;0.25;;;;;13.73;59.84;100271.72;5073218;28;45499;-68
2023/03/24 08:28:29;;;;;;;;;2.50;1.00;;;;;13.24;60.43;100201.38;5077491;28;45207;-69
2023/03/24 08:30:55;;;;;;;;;2.00;1.00;;;;;13.78;60.08;100266.03;5077095;28;45269;-68
2023/03/24 08:33:20;;;;;;;;;3.50;1.00;;;;;13.83;59.94;100256.66;5076625;28;45563;-69
2023/03/24 08:35:46;;;;;;;;;1.00;1.00;;;;;13.88;59.49;100270.69;5053918;28;47157;-71
2023/03/24 08:38:13;;;;;;;;;3.00;1.50;;;;;13.89;59.27;100268.84;5056563;28;45264;-69
2023/03/24 08:40:40;;;;;;;;;4.00;1.75;;;;;13.94;59.36;100281.06;5056066;28;45420;-69
2023/03/24 08:43:07;;;;;;;;;2.75;1.75;;;;;13.96;59.83;100292.59;5054933;28;45403;-68
2023/03/24 08:45:33;;;;;;;;;2.25;2.25;;;;;14.03;59.70;100293.91;5055963;28;45638;-68
2023/03/24 08:48:01;;;;;;;;;6.00;2.75;;;;;13.95;59.34;100271.16;5055560;28;45340;-68
2023/03/24 08:50:32;;;;;;;;;3.00;1.25;;;;;14.24;59.34;100296.13;5055903;28;45527;-68
2023/03/24 08:52:58;;;;;;;;;2.00;2.00;;;;;14.28;58.86;100292.28;5057854;28;45380;-68
2023/03/24 08:55:24;;;;;;;;;3.00;1.75;;;;;14.21;58.51;100299.88;5065664;28;45319;-69
2023/03/24 08:57:50;;;;;;;;;0.00;0.00;;;;;14.19;58.29;100290.19;5055777;28;46416;-67
2023/03/24 09:00:17;;;;;;;;;1.00;1.00;;;;;14.33;57.88;100312.56;5054514;28;45351;-68
2023/03/24 09:02:54;;;;;;;;;4.75;2.00;;;;;14.38;58.02;100305.03;5055669;28;45727;-68
2023/03/24 09:05:21;;;;;;;;;0.50;0.50;;;;;14.55;57.21;100320.03;5055525;28;45457;-69
2023/03/24 09:07:49;;;;;;;;;2.00;1.50;;;;;14.56;57.35;100320.91;5066905;28;45437;-67
2023/03/24 09:10:15;;;;;;;;;1.00;1.00;;;;;14.57;57.10;100315.41;5075263;28;45462;-68
2023/03/24 09:12:42;;;;;;;;;3.00;1.00;;;;;14.62;56.54;100312.41;5056556;28;46085;-67
2023/03/24 09:15:10;;;;;;;;;2.75;2.00;;;;;14.67;56.95;100330.00;5067861;28;46137;-68
2023/03/24 09:17:36;;;;;;;;;2.00;2.00;;;;;14.62;56.42;100336.69;5037269;28;45324;-68
2023/03/24 09:20:10;;;;;;;;;2.25;2.00;;;;;14.52;56.58;100309.50;5036705;28;45399;-70
2023/03/24 09:22:37;;;;;;;;;4.50;3.75;;;;;14.76;56.43;100332.06;5057168;28;46624;-68
2023/03/24 09:25:03;;;;;;;;;2.25;0.50;;;;;14.81;56.37;100323.63;5055218;28;45461;-68
2023/03/24 09:27:30;;;;;;;;;1.75;1.50;;;;;14.79;55.30;100314.81;5055306;28;45520;-69
2023/03/24 09:29:55;;;;;;;;;8.00;2.00;;;;;14.93;55.62;100346.22;5055228;28;45601;-68
2023/03/24 09:32:20;;;;;;;;;1.00;1.00;;;;;14.84;55.17;100331.53;5036764;28;45569;-71
2023/03/24 09:34:46;;;;;;;;;1.75;1.00;;;;;14.93;54.96;100332.72;5055546;28;45849;-68
2023/03/24 09:37:11;;;;;;;;;0.00;0.00;;;;;14.98;54.30;100330.53;5037102;28;45461;-69
2023/03/24 09:39:37;;;;;;;;;2.00;2.00;;;;;15.11;53.24;100328.72;5055069;28;45631;-66
2023/03/24 09:42:05;;;;;;;;;2.00;2.00;;;;;15.32;53.64;100339.81;5055070;28;45522;-67
2023/03/24 09:44:35;;;;;;;;;0.75;0.75;;;;;15.40;52.47;100342.81;5054472;28;46208;-70
2023/03/24 09:47:13;;;;;;;;;1.00;1.00;;;;;15.52;52.59;100323.03;5054810;28;45529;-69
2023/03/24 09:49:41;;;;;;;;;4.25;1.00;;;;;15.59;52.04;100342.38;5054867;28;45466;-70
2023/03/24 09:52:13;;;;;;;;;2.00;1.25;;;;;15.50;51.92;100328.53;5054910;28;45746;-67
2023/03/24 09:54:43;;;;;;;;;6.50;1.00;;;;;15.55;51.79;100351.72;5054904;28;46082;-69
2023/03/24 09:57:23;;;;;;;;;2.00;1.25;;;;;15.50;52.07;100346.59;5055255;28;45638;-68
2023/03/24 09:59:49;;;;;;;;;1.00;1.00;;;;;15.53;52.10;100351.78;5054075;28;45393;-68
2023/03/24 10:02:18;;;;;;;;;1.50;0.25;;;;;15.54;51.96;100348.13;5054592;28;45494;-67
2023/03/24 10:04:44;;;;;;;;;2.00;0.75;;;;;15.48;51.87;100340.47;5056009;28;46472;-66
2023/03/24 10:07:31;;;;;;;;;1.00;0.25;;;;;15.39;52.27;100343.81;5044133;28;45360;-68
2023/03/24 10:09:59;;;;;;;;;0.00;0.00;;;;;15.46;51.89;100345.09;5056602;28;45405;-68
2023/03/24 10:12:31;;;;;;;;;1.00;1.00;;;;;15.58;51.74;100355.03;5053801;28;45391;-68
2023/03/24 10:15:15;;;;;;;;;0.50;0.50;;;;;15.59;51.99;100353.19;5067569;28;45312;-68
2023/03/24 10:17:53;;;;;;;;;2.00;1.00;;;;;15.63;49.70;100362.81;5036346;28;45693;-69
2023/03/24 10:20:27;;;;;;;;;2.00;0.00;;;;;15.81;48.96;100362.34;5054288;28;45371;-69
2023/03/24 10:22:59;;;;;;;;;0.25;0.25;;;;;15.83;49.08;100346.84;5054870;28;45445;-67
2023/03/24 10:25:38;;;;;;;;;0.50;0.00;;;;;15.87;49.23;100352.91;5053247;28;46305;-68
2023/03/24 10:28:46;;;;;;;;;1.00;0.50;;;;;16.04;49.58;100348.94;5059667;28;45561;-68
2023/03/24 10:31:15;;;;;;;;;2.50;1.00;;;;;16.13;49.40;100356.38;5074378;28;45399;-67
2023/03/24 10:33:43;;;;;;;;;2.00;1.00;;;;;16.03;49.77;100376.97;5074203;28;45508;-68
2023/03/24 10:36:13;;;;;;;;;2.00;0.25;;;;;15.84;50.09;100356.69;5074439;28;45478;-68
2023/03/24 10:38:39;;;;;;;;;3.25;2.00;;;;;15.84;50.70;100372.03;5058486;28;45394;-68
2023/03/24 10:41:05;;;;;;;;;0.75;0.75;;;;;15.81;50.62;100365.03;5054036;28;45324;-69
2023/03/24 10:43:31;;;;;;;;;0.00;0.00;;;;;15.78;50.82;100340.94;5053846;28;45572;-67
2023/03/24 10:45:58;;;;;;;;;0.75;0.75;;;;;16.01;50.67;100349.16;5053977;28;46146;-70
2023/03/24 10:48:39;;;;;;;;;2.00;1.50;;;;;16.00;50.53;100340.19;5053868;28;45397;-70
2023/03/24 10:51:05;;;;;;;;;0.25;0.25;;;;;16.10;50.07;100365.56;5054255;28;45371;-68
2023/03/24 10:53:34;;;;;;;;;2.25;0.50;;;;;15.92;49.85;100368.78;5053885;28;45570;-69
2023/03/24 10:56:00;;;;;;;;;3.25;2.00;;;;;15.90;49.99;100366.22;5053657;28;45409;-71
2023/03/24 10:58:36;;;;;;;;;0.50;0.00;;;;;15.97;50.13;100355.78;5053955;28;45304;-68
2023/03/24 11:01:07;;;;;;;;;1.75;1.75;;;;;16.15;50.03;100349.00;5054261;28;45539;-68
2023/03/24 11:03:36;;;;;;;;;1.00;1.00;;;;;16.27;49.15;100364.31;5053411;28;45598;-69
2023/03/24 11:06:04;;;;;;;;;1.00;1.00;;;;;16.08;49.23;100382.88;5060898;28;46207;-68
2023/03/24 11:08:40;;;;;;;;;0.75;0.75;;;;;15.99;50.28;100372.78;5061881;28;45374;-66
2023/03/24 11:11:30;;;;;;;;;2.00;1.00;;;;;15.97;50.67;100370.19;5054100;28;45369;-72
2023/03/24 11:14:01;;;;;;;;;2.00;1.00;;;;;15.95;49.69;100357.75;5064329;28;45590;-68
2023/03/24 11:16:35;;;;;;;;;6.00;2.00;;;;;15.95;50.10;100345.09;5054479;28;46295;-71
2023/03/24 11:19:03;;;;;;;;;4.00;1.00;;;;;16.14;49.59;100371.63;5054022;28;45334;-70
2023/03/24 11:21:30;;;;;;;;;4.00;1.00;;;;;16.25;49.91;100358.13;5035225;28;45392;-73
2023/03/24 11:24:03;;;;;;;;;3.25;2.00;;;;;16.35;49.29;100361.00;5053376;28;45305;-70
2023/03/24 11:26:35;;;;;;;;;2.00;2.00;;;;;16.36;49.35;100330.28;5060442;28;45846;-74
2023/03/24 11:29:06;;;;;;;;;0.00;0.00;;;;;16.47;48.39;100344.72;5074145;28;45417;-74
2023/03/24 11:31:37;;;;;;;;;0.25;0.25;;;;;16.41;48.40;100361.44;5073666;28;45469;-73
2023/03/24 11:34:19;;;;;;;;;1.50;1.00;;;;;16.74;48.26;100346.31;5073934;28;45552;-72
2023/03/24 11:37:08;;;;;;;;;0.00;0.00;;;;;17.06;47.07;100379.84;5073960;28;46813;-73
2023/03/24 11:39:34;;;;;;;;;4.50;1.00;;;;;17.26;46.84;100364.75;5055227;28;45369;-77
2023/03/24 11:42:11;;;;;;;;;0.00;0.00;;;;;17.37;46.58;100354.75;5055744;28;45464;-73
2023/03/24 11:44:36;;;;;;;;;2.25;0.00;;;;;17.28;46.90;100357.34;5074284;28;45477;-73
2023/03/24 11:47:08;;;;;;;;;2.75;1.75;;;;;17.41;47.47;100355.38;5073553;28;47136;-75
2023/03/24 11:49:40;;;;;;;;;1.00;0.00;;;;;17.27;46.88;100361.03;5073775;28;45530;-73
2023/03/24 11:52:19;;;;;;;;;1.50;1.00;;;;;17.22;46.53;100366.81;5073698;28;45221;-75
2023/03/24 11:54:45;;;;;;;;;1.00;1.00;;;;;17.23;45.61;100364.97;5073891;28;45378;-69
2023/03/24 11:57:17;;;;;;;;;1.00;1.00;;;;;17.64;45.12;100354.41;5067634;28;45378;-70
2023/03/24 12:00:29;;;;;;;;;1.00;1.00;;;;;17.55;45.61;100355.13;5049497;28;45401;-74
2023/03/24 12:03:16;;;;;;;;;2.25;2.00;;;;;17.21;49.42;100410.28;5065778;28;45799;-74
2023/03/24 12:05:49;;;;;;;;;1.50;0.00;;;;;16.59;51.03;100354.59;5052529;28;46098;-79
2023/03/24 12:08:42;;;;;;;;;1.25;0.75;;;;;16.47;53.14;100379.03;5035153;28;46542;-74
2023/03/24 12:11:20;;;;;;;;;1.75;1.75;;;;;16.18;51.96;100373.09;5034860;28;45254;-74
2023/03/24 12:13:48;;;;;;;;;3.00;1.00;;;;;15.94;50.92;100418.19;5044873;28;45395;-72
2023/03/24 12:16:53;;;;;;;;;0.00;0.00;;;;;15.67;49.35;100405.72;5056472;28;45491;-72
2023/03/24 12:19:36;;;;;;;;;1.00;0.00;;;;;15.32;51.32;100408.19;4974869;28;45438;-71
2023/03/24 12:22:24;;;;;;;;;0.00;0.00;;;;;15.07;54.52;100373.97;4973056;28;45363;-75
2023/03/24 12:25:05;;;;;;;;;0.00;0.00;;;;;14.64;57.06;100386.88;5012687;28;45439;-71
2023/03/24 12:27:47;;;;;;;;;0.00;0.00;;;;;14.78;58.72;100407.53;5056464;28;45483;-72
2023/03/24 12:30:31;;;;;;;;;0.00;0.00;;;;;14.79;57.82;100400.28;5056380;28;46230;-71
2023/03/24 12:33:09;;;;;;;;;0.00;0.00;;;;;15.26;57.61;100375.38;5043987;28;45438;-70
2023/03/24 12:35:55;;;;;;;;;0.00;0.00;;;;;16.00;56.47;100363.66;5056527;28;45313;-71
2023/03/24 12:38:54;;;;;;;;;0.00;0.00;;;;;17.60;54.35;100358.34;5056834;28;45429;-73
2023/03/24 12:41:38;;;;;;;;;1.50;0.00;;;;;19.10;49.42;100347.44;5056490;28;46293;-76
2023/03/24 12:44:18;;;;;;;;;0.75;0.75;;;;;20.78;46.84;100330.25;5049894;28;45395;-75
2023/03/24 12:47:09;;;;;;;;;0.00;0.00;;;;;22.03;42.87;100337.97;5036246;28;45283;-71
2023/03/24 12:49:37;;;;;;;;;1.75;0.00;;;;;22.67;41.71;100319.66;5035398;28;46533;-74
2023/03/24 12:52:39;;;;;;;;;0.75;0.75;;;;;23.39;40.72;100319.34;5035505;28;45272;-72
2023/03/24 12:55:16;;;;;;;;;4.00;0.75;;;;;22.99;40.52;100317.19;5038171;28;45388;-67
2023/03/24 12:58:20;;;;;;;;;0.00;0.00;;;;;22.27;42.19;100329.22;5049298;28;45508;-68
2023/03/24 13:01:00;;;;;;;;;2.00;1.00;;;;;20.95;45.16;100315.88;5049205;28;46550;-66
2023/03/24 13:03:34;;;;;;;;;0.50;0.50;;;;;20.43;47.05;100311.78;5050438;28;45232;-68
2023/03/24 13:06:12;;;;;;;;;0.75;0.50;;;;;19.94;47.75;100331.75;5026013;28;45381;-67
2023/03/24 13:08:40;;;;;;;;;1.25;0.25;;;;;19.41;50.06;100333.84;5006371;28;45382;-67
2023/03/24 13:11:11;;;;;;;;;1.00;1.00;;;;;18.93;51.63;100328.16;5039757;28;45418;-67
2023/03/24 13:13:40;;;;;;;;;1.00;1.00;;;;;18.20;52.35;100334.44;5054012;28;45479;-69
2023/03/24 13:16:16;;;;;;;;;3.00;1.75;;;;;17.66;53.49;100324.47;5039802;28;45419;-67
2023/03/24 13:18:46;;;;;;;;;0.00;0.00;;;;;17.27;54.87;100296.00;5035780;28;45319;-67
2023/03/24 13:21:22;;;;;;;;;0.00;0.00;;;;;16.70;52.60;100318.59;5040189;28;45485;-67
2023/03/24 13:23:56;;;;;;;;;0.00;0.00;;;;;16.27;54.51;100307.50;5035395;28;46073;-67
2023/03/24 13:26:40;;;;;;;;;0.00;0.00;;;;;16.06;55.31;100325.38;5035436;28;45465;-66
2023/03/24 13:29:20;;;;;;;;;0.00;0.00;;;;;15.57;58.32;100347.91;5039052;28;45284;-67
2023/03/24 13:32:08;;;;;;;;;2.00;0.00;;;;;15.95;63.85;100309.94;5065907;28;45368;-67
2023/03/24 13:34:41;;;;;;;;;0.50;0.00;;;;;17.16;60.00;100315.84;5075887;28;46046;-66
2023/03/24 13:37:14;;;;;;;;;2.50;0.75;;;;;18.84;56.28;100291.81;5075157;28;45488;-78
2023/03/24 13:39:43;;;;;;;;;1.25;0.00;;;;;19.75;50.14;100267.28;5075786;28;45422;-78
2023/03/24 13:42:29;;;;;;;;;0.00;0.00;;;;;20.58;49.33;100295.88;5057305;28;47171;-76
2023/03/24 13:44:54;;;;;;;;;3.50;0.00;;;;;20.33;47.18;100284.50;5075787;28;46352;-77
2023/03/24 13:47:20;;;;;;;;;0.00;0.00;;;;;20.07;48.11;100282.53;5075584;28;45282;-76
2023/03/24 13:50:00;;;;;;;;;3.75;0.00;;;;;19.48;49.55;100277.97;5076576;28;45307;-78
2023/03/24 13:52:32;;;;;;;;;1.50;1.50;;;;;19.26;49.43;100284.44;5057202;28;45636;-79
2023/03/24 13:55:07;;;;;;;;;1.00;1.00;;;;;19.47;50.35;100270.78;5075422;28;45591;-79
2023/03/24 13:57:33;;;;;;;;;0.50;0.50;;;;;19.39;49.44;100263.31;5067030;28;45449;-80
2023/03/24 14:00:10;;;;;;;;;1.75;1.00;;;;;19.10;49.39;100244.19;5072021;28;45331;-79
2023/03/24 14:02:47;;;;;;;;;1.75;1.50;;;;;18.97;49.31;100254.41;5077562;28;45508;-78
2023/03/24 14:05:21;;;;;;;;;1.50;1.50;;;;;18.90;48.50;100251.38;5054880;28;46452;-79
2023/03/24 14:08:12;;;;;;;;;1.25;0.25;;;;;18.79;48.34;100248.78;5054543;28;45299;-78
2023/03/24 14:10:37;;;;;;;;;1.00;1.00;;;;;18.80;48.71;100242.31;5038555;28;45396;-77
2023/03/24 14:13:18;;;;;;;;;0.00;0.00;;;;;19.13;47.56;100233.06;5071208;28;45403;-78
2023/03/24 14:15:55;;;;;;;;;2.00;1.00;;;;;20.28;44.50;100242.41;5075179;28;45374;-77
2023/03/24 14:18:23;;;;;;;;;0.00;0.00;;;;;21.35;41.25;100236.53;5038613;28;45459;-78
2023/03/24 14:20:55;;;;;;;;;0.00;0.00;;;;;21.90;39.30;100228.28;5056495;28;45425;-78
2023/03/24 14:23:44;;;;;;;;;0.00;0.00;;;;;23.09;38.26;100233.19;5062261;28;45586;-76
2023/03/24 14:26:28;;;;;;;;;1.00;1.00;;;;;22.66;38.02;100220.44;5055534;28;46268;-74
2023/03/24 14:28:56;;;;;;;;;0.25;0.00;;;;;23.00;37.44;100225.97;5071907;28;45431;-74
2023/03/24 14:31:27;;;;;;;;;0.00;0.00;;;;;22.35;38.77;100222.78;5073871;28;45490;-72
2023/03/24 14:33:52;;;;;;;;;0.00;0.00;;;;;23.33;38.60;100221.50;5060499;28;45346;-72
2023/03/24 14:36:38;;;;;;;;;0.50;0.50;;;;;23.08;37.63;100257.94;5065197;28;45320;-74
2023/03/24 14:39:21;;;;;;;;;0.25;0.25;;;;;23.82;36.91;100219.78;5074403;28;45513;-74
2023/03/24 14:41:51;;;;;;;;;1.00;0.50;;;;;23.81;36.38;100203.56;5071381;28;45309;-73
2023/03/24 14:44:56;;;;;;;;;2.00;0.00;;;;;24.47;35.74;100233.59;5074350;28;45968;-74
2023/03/24 14:47:31;;;;;;;;;0.50;0.50;;;;;24.18;35.41;100231.31;5011560;28;46072;-74
2023/03/24 14:50:00;;;;;;;;;3.00;0.00;;;;;24.23;35.33;100220.75;5011907;28;45493;-75
2023/03/24 14:52:41;;;;;;;;;0.75;0.00;;;;;24.08;34.39;100247.03;5039241;28;45476;-73
2023/03/24 14:55:15;;;;;;;;;0.00;0.00;;;;;24.28;35.01;100223.81;5035527;28;46387;-75
2023/03/24 14:57:42;;;;;;;;;0.00;0.00;;;;;24.65;33.27;100204.09;5054271;28;45455;-75
2023/03/24 15:00:11;;;;;;;;;0.00;0.00;;;;;24.68;33.31;100233.88;5071179;28;46109;-74
2023/03/24 15:02:40;;;;;;;;;0.00;0.00;;;;;24.84;32.22;100217.41;5074946;28;45307;-74
2023/03/24 15:05:29;;;;;;;;;0.50;0.00;;;;;24.28;32.72;100212.00;5070145;28;45311;-74
2023/03/24 15:07:59;;;;;;;;;0.00;0.00;;;;;23.87;33.79;100239.31;5053874;28;45387;-76
2023/03/24 15:10:30;;;;;;;;;0.00;0.00;;;;;23.36;34.55;100224.78;5058969;28;45601;-73
2023/03/24 15:12:56;;;;;;;;;0.00;0.00;;;;;22.82;36.07;100250.63;5051214;28;45482;-75
2023/03/24 15:15:22;;;;;;;;;0.00;0.00;;;;;22.18;36.86;100234.56;5053881;28;46070;-73
2023/03/24 15:17:49;;;;;;;;;1.50;0.00;;;;;21.70;37.93;100233.03;5053494;28;46142;-72
2023/03/24 15:20:22;;;;;;;;;1.25;0.00;;;;;21.49;38.15;100230.59;5053142;28;45741;-73
2023/03/24 15:22:49;;;;;;;;;0.00;0.00;;;;;20.98;39.01;100239.28;5053908;28;45391;-73
2023/03/24 15:25:16;;;;;;;;;0.00;0.00;;;;;20.42;40.33;100241.97;5053419;28;45404;-74
2023/03/24 15:27:50;;;;;;;;;0.00;0.00;;;;;20.31;40.67;100214.91;5055740;28;45510;-74
2023/03/24 15:30:15;;;;;;;;;0.00;0.00;;;;;20.59;39.56;100232.19;5053839;28;45743;-75
2023/03/24 15:32:44;;;;;;;;;0.00;0.00;;;;;20.42;38.58;100244.69;5059108;28;45542;-73
2023/03/24 15:35:15;;;;;;;;;0.00;0.00;;;;;20.35;38.38;100227.22;5071317;28;45837;-73
2023/03/24 15:37:46;;;;;;;;;0.00;0.00;;;;;20.60;37.36;100214.84;5074055;28;46541;-73
2023/03/24 15:40:51;;;;;;;;;0.00;0.00;;;;;20.82;37.33;100191.88;5073664;28;45339;-74
2023/03/24 15:43:21;;;;;;;;;0.00;0.00;;;;;21.07;37.00;100202.09;5065191;28;45339;-74
2023/03/24 15:45:54;;;;;;;;;0.00;0.00;;;;;20.93;36.71;100194.38;5074416;28;45387;-74
2023/03/24 15:48:23;;;;;;;;;0.00;0.00;;;;;20.87;37.14;100212.19;5055503;28;45540;-75
2023/03/24 15:50:56;;;;;;;;;0.00;0.00;;;;;21.06;37.11;100228.47;5073402;28;45216;-75
2023/03/24 15:53:43;;;;;;;;;0.25;0.25;;;;;20.39;37.23;100196.00;5061434;28;45381;-74
2023/03/24 15:56:16;;;;;;;;;0.75;0.00;;;;;20.05;38.47;100219.22;5038857;28;45767;-75
2023/03/24 15:58:50;;;;;;;;;0.00;0.00;;;;;19.68;39.46;100228.06;5066175;28;45394;-74
2023/03/24 16:01:19;;;;;;;;;1.00;0.75;;;;;19.51;40.22;100248.63;5057161;28;45442;-75
2023/03/24 16:03:47;;;;;;;;;0.00;0.00;;;;;18.84;45.58;100298.09;5057216;28;45467;-74
2023/03/24 16:06:28;;;;;;;;;1.50;0.00;;;;;18.15;51.24;100281.41;5064143;28;45613;-74
2023/03/24 16:08:58;;;;;;;;;0.00;0.00;;;;;17.59;52.58;100288.84;5056792;28;45579;-73
2023/03/24 16:11:27;;;;;;;;;1.00;0.00;;;;;17.35;54.02;100278.13;5056638;28;45481;-74
2023/03/24 16:13:52;;;;;;;;;0.00;0.00;;;;;17.03;54.70;100266.34;5067602;28;45346;-75
2023/03/24 16:16:29;;;;;;;;;0.00;0.00;;;;;16.94;55.79;100275.19;5059383;28;45569;-78
2023/03/24 16:18:56;;;;;;;;;0.00;0.00;;;;;17.25;56.39;100235.69;5056912;28;46588;-73
2023/03/24 16:21:27;;;;;;;;;0.00;0.00;;;;;17.44;53.12;100235.88;5056951;28;45411;-74
2023/03/24 16:23:54;;;;;;;;;2.00;0.00;;;;;17.63;53.37;100241.53;5056429;28;45711;-74
2023/03/24 16:26:25;;;;;;;;;0.00;0.00;;;;;17.89;53.73;100195.09;5056783;28;45525;-72
2023/03/24 16:28:52;;;;;;;;;0.00;0.00;;;;;18.35;51.46;100233.59;5059079;28;46467;-77
2023/03/24 16:31:29;;;;;;;;;1.00;1.00;;;;;18.42;50.65;100236.63;5063972;28;45605;-78
2023/03/24 16:33:56;;;;;;;;;0.00;0.00;;;;;18.52;49.39;100207.69;5061555;28;45346;-75
2023/03/24 16:36:25;;;;;;;;;0.75;0.00;;;;;18.93;49.33;100217.66;5066049;28;45501;-79
2023/03/24 16:38:52;;;;;;;;;2.00;1.00;;;;;19.20;49.05;100212.47;5076795;28;47369;-77
2023/03/24 16:41:18;;;;;;;;;0.25;0.25;;;;;19.51;48.70;100226.88;5077226;28;45490;-77
2023/03/24 16:43:44;;;;;;;;;0.00;0.00;;;;;19.41;46.13;100220.53;5077482;28;45852;-78
2023/03/24 16:46:14;;;;;;;;;1.00;1.00;;;;;19.30;47.67;100222.53;5076858;28;45273;-74
2023/03/24 16:48:41;;;;;;;;;0.00;0.00;;;;;19.34;46.07;100219.38;5054756;28;47598;-77
2023/03/24 16:51:11;;;;;;;;;0.00;0.00;;;;;19.13;46.84;100219.47;5067778;28;45587;-76
2023/03/24 16:53:38;;;;;;;;;0.00;0.00;;;;;18.89;46.82;100213.47;5068266;28;45355;-77
2023/03/24 16:56:04;;;;;;;;;2.25;0.50;;;;;18.50;46.33;100224.13;5062052;28;45718;-75
2023/03/24 16:58:29;;;;;;;;;0.00;0.00;;;;;18.33;46.97;100232.88;5061939;28;47484;-75
2023/03/24 17:00:56;;;;;;;;;0.75;0.75;;;;;17.96;47.66;100218.00;5069487;28;45566;-76
2023/03/24 17:03:23;;;;;;;;;0.00;0.00;;;;;17.64;48.20;100199.88;5058801;28;45429;-79
2023/03/24 17:05:50;;;;;;;;;0.75;0.75;;;;;17.42;49.42;100220.75;5068609;28;45489;-79
2023/03/24 17:08:17;;;;;;;;;3.75;0.00;;;;;17.20;49.77;100229.75;5072413;28;45403;-77
2023/03/24 17:10:44;;;;;;;;;0.00;0.00;;;;;17.02;50.73;100215.88;5072885;28;45526;-79
2023/03/24 17:13:20;;;;;;;;;2.50;0.00;;;;;17.00;50.47;100212.44;5064039;28;45540;-77